createdAt,value
2023-04-16T00:02:43.979Z,103106.34
2023-04-16T00:05:32.524Z,103094.78
2023-04-16T00:08:24.241Z,103086.47
2023-04-16T00:11:12.816Z,103097.50
2023-04-16T00:14:01.018Z,103103.63
2023-04-16T00:16:49.454Z,103185.28
2023-04-16T00:19:38.788Z,103184.59
2023-04-16T00:22:27.233Z,103189.22
2023-04-16T00:25:16.906Z,103201.31
2023-04-16T00:28:06.080Z,103192.47
2023-04-16T00:30:54.571Z,103188.41
2023-04-16T00:33:42.860Z,103169.50
2023-04-16T00:36:31.416Z,103164.03
2023-04-16T00:39:23.485Z,103147.84
2023-04-16T00:42:12.983Z,103150.19
2023-04-16T00:45:01.298Z,103152.88
2023-04-16T00:47:49.470Z,103152.09
2023-04-16T00:50:37.639Z,103152.75
2023-04-16T00:53:26.666Z,103161.16
2023-04-16T00:56:15.072Z,103149.88
2023-04-16T00:59:05.052Z,103143.91
2023-04-16T01:01:53.254Z,103145.00
2023-04-16T01:04:41.673Z,103152.59
2023-04-16T01:07:29.855Z,103151.50
2023-04-16T01:10:18.170Z,103151.66
2023-04-16T01:13:06.238Z,103150.56
2023-04-16T01:15:55.888Z,103147.81
2023-04-16T01:18:44.003Z,103145.41
2023-04-16T01:21:33.470Z,103149.06
2023-04-16T01:24:21.675Z,103146.50
2023-04-16T01:27:10.066Z,103148.09
2023-04-16T01:29:58.132Z,103139.66
2023-04-16T01:32:46.497Z,103142.94
2023-04-16T01:35:34.599Z,103149.59
2023-04-16T01:38:24.071Z,103148.78
2023-04-16T01:41:12.154Z,103149.59
2023-04-16T01:44:00.262Z,103150.81
2023-04-16T01:46:48.857Z,103145.81
2023-04-16T01:49:37.498Z,103146.06
2023-04-16T01:52:25.940Z,103142.81
2023-04-16T01:55:15.827Z,103139.28
2023-04-16T01:58:04.352Z,103149.50
2023-04-16T02:00:52.442Z,103132.47
2023-04-16T02:03:41.633Z,103141.47
2023-04-16T02:06:30.623Z,103144.06
2023-04-16T02:09:18.821Z,103154.53
2023-04-16T02:12:11.275Z,103154.13
2023-04-16T02:14:59.457Z,103153.72
2023-04-16T02:17:48.881Z,103153.44
2023-04-16T02:20:40.649Z,103156.16
2023-04-16T02:23:29.319Z,103151.81
2023-04-16T02:26:18.000Z,103157.50
2023-04-16T02:29:08.512Z,103162.97
2023-04-16T02:31:56.868Z,103157.66
2023-04-16T02:34:45.023Z,103154.94
2023-04-16T02:37:33.179Z,103145.81
2023-04-16T02:40:22.579Z,103154.53
2023-04-16T02:43:10.652Z,103148.41
2023-04-16T02:46:01.078Z,103152.22
2023-04-16T02:48:49.188Z,103148.41
2023-04-16T02:51:37.244Z,103151.56
2023-04-16T02:54:25.781Z,103157.25
2023-04-16T02:57:13.790Z,103151.81
2023-04-16T03:00:02.324Z,103156.97
2023-04-16T03:02:52.001Z,103171.25
2023-04-16T03:05:40.559Z,103174.13
2023-04-16T03:08:28.603Z,103165.97
2023-04-16T03:11:16.829Z,103152.09
2023-04-16T03:14:05.556Z,103147.06
2023-04-16T03:16:53.597Z,103142.84
2023-04-16T03:19:43.154Z,103149.50
2023-04-16T03:22:31.557Z,103078.13
2023-04-16T03:25:20.339Z,103074.19
2023-04-16T03:28:08.472Z,103080.84
2023-04-16T03:30:56.800Z,103080.84
2023-04-16T03:33:45.028Z,103078.28
2023-04-16T03:36:34.517Z,103067.25
2023-04-16T03:39:22.792Z,103061.41
2023-04-16T03:42:10.988Z,103161.50
2023-04-16T03:44:59.399Z,103258.06
2023-04-16T03:47:52.340Z,103203.78
2023-04-16T03:50:41.264Z,103194.78
2023-04-16T03:53:31.038Z,103130.34
2023-04-16T03:56:19.348Z,103098.38
2023-04-16T03:59:07.608Z,103043.19
2023-04-16T04:01:56.492Z,102976.16
2023-04-16T04:04:45.165Z,102968.28
2023-04-16T04:07:33.222Z,102933.72
2023-04-16T04:10:22.663Z,102865.72
2023-04-16T04:13:10.825Z,102831.72
2023-04-16T04:15:58.977Z,102824.47
2023-04-16T04:18:47.007Z,102802.97
2023-04-16T04:21:35.226Z,102799.72
2023-04-16T04:24:23.423Z,102788.28
2023-04-16T04:27:13.259Z,102779.59
2023-04-16T04:30:01.370Z,102768.16
2023-04-16T04:32:49.736Z,102759.59
2023-04-16T04:35:37.718Z,102756.34
2023-04-16T04:38:26.706Z,102751.16
2023-04-16T04:41:14.903Z,102733.88
2023-04-16T04:44:04.443Z,102696.56
2023-04-16T04:46:52.527Z,102692.19
2023-04-16T04:49:41.088Z,102668.63
2023-04-16T04:52:29.297Z,102656.69
2023-04-16T04:55:17.378Z,102649.59
2023-04-16T04:58:06.194Z,102638.59
2023-04-16T05:00:56.008Z,102639.41
2023-04-16T05:03:44.583Z,102632.31
2023-04-16T05:06:32.721Z,102629.72
2023-04-16T05:09:20.985Z,102621.97
2023-04-16T05:12:09.170Z,102610.00
2023-04-16T05:14:57.274Z,102598.72
2023-04-16T05:17:46.833Z,102605.00
2023-04-16T05:20:35.050Z,102604.69
2023-04-16T05:23:23.396Z,102595.69
2023-04-16T05:26:11.459Z,102604.38
2023-04-16T05:28:59.464Z,102596.63
2023-04-16T05:31:47.644Z,102606.97
2023-04-16T05:34:37.186Z,102608.59
2023-04-16T05:37:26.094Z,102601.00
2023-04-16T05:40:15.107Z,102610.75
2023-04-16T05:43:03.189Z,102597.81
2023-04-16T05:45:51.334Z,102598.75
2023-04-16T05:48:39.840Z,102582.97
2023-04-16T05:51:29.458Z,102574.56
2023-04-16T05:54:17.897Z,102576.81
2023-04-16T05:57:07.074Z,102569.06
2023-04-16T05:59:55.166Z,102570.53
2023-04-16T06:02:43.473Z,102559.53
2023-04-16T06:05:31.968Z,102566.03
2023-04-16T06:08:22.225Z,102561.66
2023-04-16T06:11:10.603Z,102564.25
2023-04-16T06:13:58.798Z,102562.63
2023-04-16T06:16:47.401Z,102563.44
2023-04-16T06:19:35.678Z,102559.59
2023-04-16T06:22:23.846Z,102567.03
2023-04-16T06:25:13.492Z,102560.41
2023-04-16T06:28:01.976Z,102566.09
2023-04-16T06:30:50.011Z,102565.28
2023-04-16T06:33:38.031Z,102560.56
2023-04-16T06:36:27.546Z,102562.50
2023-04-16T06:39:23.999Z,102563.44
2023-04-16T06:42:13.589Z,102554.38
2023-04-16T06:45:01.838Z,102527.72
2023-04-16T06:47:51.128Z,102523.53
2023-04-16T06:50:39.519Z,102520.44
2023-04-16T06:53:27.765Z,102510.63
2023-04-16T06:56:16.057Z,102503.00
2023-04-16T06:59:06.299Z,102505.72
2023-04-16T07:01:54.530Z,102484.56
2023-04-16T07:04:43.016Z,102473.63
2023-04-16T07:07:31.177Z,102487.34
2023-04-16T07:10:22.420Z,102480.88
2023-04-16T07:13:10.636Z,102469.22
2023-04-16T07:16:01.588Z,102445.34
2023-04-16T07:18:49.763Z,102379.78
2023-04-16T07:21:38.181Z,102325.69
2023-04-16T07:24:26.565Z,102315.53
2023-04-16T07:27:23.245Z,102304.84
2023-04-16T07:30:13.080Z,102303.06
2023-04-16T07:33:04.154Z,102289.81
2023-04-16T07:35:52.261Z,102282.41
2023-04-16T07:38:43.089Z,102285.78
2023-04-16T07:41:31.175Z,102271.91
2023-04-16T07:44:19.187Z,102253.16
2023-04-16T07:47:07.448Z,102243.97
2023-04-16T07:49:56.824Z,102253.50
2023-04-16T07:52:45.408Z,102242.84
2023-04-16T07:55:33.519Z,102235.72
2023-04-16T07:58:31.060Z,102227.47
2023-04-16T08:01:19.221Z,102224.25
2023-04-16T08:04:07.525Z,102223.44
2023-04-16T08:06:57.034Z,102208.41
2023-04-16T08:09:49.834Z,102207.28
2023-04-16T08:12:38.684Z,102211.47
2023-04-16T08:15:27.871Z,102203.56
2023-04-16T08:18:16.140Z,102195.97
2023-04-16T08:21:04.341Z,102201.28
2023-04-16T08:23:54.434Z,102194.66
2023-04-16T08:26:42.615Z,102194.66
2023-04-16T08:29:30.641Z,102190.94
2023-04-16T08:32:18.821Z,102184.81
2023-04-16T08:35:07.538Z,102183.03
2023-04-16T08:37:57.897Z,102182.53
2023-04-16T08:40:48.719Z,102171.91
2023-04-16T08:43:39.326Z,102168.78
2023-04-16T08:46:30.444Z,102173.63
2023-04-16T08:49:19.398Z,102170.06
2023-04-16T08:52:10.520Z,102166.53
2023-04-16T08:55:06.002Z,102161.00
2023-04-16T08:57:59.427Z,102169.19
2023-04-16T09:00:50.464Z,102166.28
2023-04-16T09:03:39.537Z,102167.75
2023-04-16T09:06:28.572Z,102167.28
2023-04-16T09:09:20.090Z,102165.47
2023-04-16T09:12:09.868Z,102165.84
2023-04-16T09:15:03.146Z,102169.69
2023-04-16T09:17:51.275Z,102168.13
2023-04-16T09:20:39.679Z,102163.94
2023-04-16T09:23:27.790Z,102179.47
2023-04-16T09:26:16.461Z,102168.81
2023-04-16T09:29:04.599Z,102169.44
2023-04-16T09:32:03.256Z,102175.03
2023-04-16T09:34:59.452Z,102175.53
2023-04-16T09:37:57.005Z,102180.56
2023-04-16T09:40:45.227Z,102183.81
2023-04-16T09:43:33.310Z,102175.03
2023-04-16T09:46:21.667Z,102181.06
2023-04-16T09:49:12.607Z,102173.16
2023-04-16T09:52:00.919Z,102169.72
2023-04-16T09:54:50.167Z,102174.53
2023-04-16T09:57:39.240Z,102176.03
2023-04-16T10:00:27.633Z,102180.06
2023-04-16T10:03:15.920Z,102183.13
2023-04-16T10:06:09.405Z,102185.38
2023-04-16T10:08:58.089Z,102182.88
2023-04-16T10:11:46.445Z,102184.03
2023-04-16T10:14:34.895Z,102193.44
2023-04-16T10:17:24.000Z,102192.94
2023-04-16T10:20:12.894Z,102200.56
2023-04-16T10:23:03.314Z,102199.53
2023-04-16T10:25:52.625Z,102198.59
2023-04-16T10:28:41.898Z,102210.34
2023-04-16T10:31:30.962Z,102208.88
2023-04-16T10:34:21.804Z,102206.44
2023-04-16T10:37:10.342Z,102217.66
2023-04-16T10:40:01.353Z,102223.00
2023-04-16T10:42:55.710Z,102232.69
2023-04-16T10:45:43.941Z,102225.88
2023-04-16T10:48:42.338Z,102236.72
2023-04-16T10:51:37.816Z,102236.56
2023-04-16T10:54:27.518Z,102237.84
2023-04-16T10:57:19.348Z,102236.66
2023-04-16T11:00:24.074Z,102254.69
2023-04-16T11:03:12.711Z,102260.00
2023-04-16T11:06:14.643Z,102257.91
2023-04-16T11:09:05.702Z,102255.41
2023-04-16T11:11:54.328Z,102264.66
2023-04-16T11:14:44.543Z,102252.81
2023-04-16T11:17:39.697Z,102258.91
2023-04-16T11:20:29.509Z,102264.59
2023-04-16T11:23:20.521Z,102268.66
2023-04-16T11:26:21.548Z,102278.00
2023-04-16T11:29:15.620Z,102282.69
2023-04-16T11:32:05.229Z,102275.78
2023-04-16T11:34:57.724Z,102282.41
2023-04-16T11:37:46.802Z,102271.56
2023-04-16T11:40:35.923Z,102285.31
2023-04-16T11:43:24.070Z,102294.69
2023-04-16T11:46:26.414Z,102303.13
2023-04-16T11:49:17.811Z,102300.84
2023-04-16T11:52:05.958Z,102290.94
2023-04-16T11:54:54.697Z,102303.84
2023-04-16T11:57:42.870Z,102308.28
2023-04-16T12:00:35.963Z,102321.69
2023-04-16T12:03:39.552Z,102318.53
2023-04-16T12:06:29.430Z,102311.06
2023-04-16T12:09:24.259Z,102309.09
2023-04-16T12:12:30.519Z,102307.34
2023-04-16T12:15:18.988Z,102305.41
2023-04-16T12:18:10.562Z,102296.63
2023-04-16T12:20:58.841Z,102298.88
2023-04-16T12:23:54.397Z,102293.75
2023-04-16T12:26:43.861Z,102298.56
2023-04-16T12:29:32.403Z,102290.97
2023-04-16T12:32:24.541Z,102298.09
2023-04-16T12:35:13.490Z,102302.50
2023-04-16T12:38:03.591Z,102288.78
2023-04-16T12:40:56.577Z,102285.00
2023-04-16T12:43:48.210Z,102273.50
2023-04-16T12:46:38.210Z,102271.84
2023-04-16T12:49:26.346Z,102272.75
2023-04-16T12:52:15.077Z,102279.56
2023-04-16T12:55:03.808Z,102273.31
2023-04-16T12:57:53.783Z,102267.41
2023-04-16T13:00:42.450Z,102276.59
2023-04-16T13:03:31.151Z,102277.72
2023-04-16T13:06:22.177Z,102265.84
2023-04-16T13:09:10.699Z,102271.34
2023-04-16T13:11:59.124Z,102271.22
2023-04-16T13:14:48.576Z,102265.84
2023-04-16T13:17:36.936Z,102269.75
2023-04-16T13:20:25.198Z,102268.59
2023-04-16T13:23:13.692Z,102275.06
2023-04-16T13:26:01.707Z,102273.47
2023-04-16T13:28:52.499Z,102276.47
2023-04-16T13:31:42.031Z,102281.16
2023-04-16T13:34:30.170Z,102276.63
2023-04-16T13:37:18.344Z,102272.91
2023-04-16T13:40:08.312Z,102281.03
2023-04-16T13:42:56.539Z,102276.72
2023-04-16T13:45:44.772Z,102272.69
2023-04-16T13:48:34.256Z,102275.25
2023-04-16T13:51:24.620Z,102270.97
2023-04-16T13:54:12.856Z,102270.94
2023-04-16T13:57:01.542Z,102276.00
2023-04-16T13:59:52.051Z,102285.06
2023-04-16T14:02:40.870Z,102284.78
2023-04-16T14:05:30.416Z,102293.19
2023-04-16T14:08:21.175Z,102300.66
2023-04-16T14:11:12.304Z,102305.25
2023-04-16T14:14:00.741Z,102298.38
2023-04-16T14:16:48.925Z,102299.22
2023-04-16T14:19:37.184Z,102288.72
2023-04-16T14:22:26.970Z,102292.69
2023-04-16T14:25:15.199Z,102285.75
2023-04-16T14:28:03.362Z,102282.81
2023-04-16T14:30:51.410Z,102284.78
2023-04-16T14:33:41.171Z,102283.06
2023-04-16T14:36:29.428Z,102280.31
2023-04-16T14:39:18.913Z,102270.53
2023-04-16T14:42:07.173Z,102273.75
2023-04-16T14:44:55.647Z,102266.41
2023-04-16T14:47:49.652Z,102274.56
2023-04-16T14:50:38.849Z,102278.16
2023-04-16T14:53:27.150Z,102277.34
2023-04-16T14:56:16.673Z,102277.41
2023-04-16T14:59:04.749Z,102279.44
2023-04-16T15:01:53.663Z,102272.34
2023-04-16T15:04:41.822Z,102263.75
2023-04-16T15:07:30.055Z,102268.72
2023-04-16T15:10:18.199Z,102272.59
2023-04-16T15:13:07.781Z,102284.25
2023-04-16T15:15:56.329Z,102285.06
2023-04-16T15:18:44.453Z,102293.34
2023-04-16T15:21:32.882Z,102287.56
2023-04-16T15:24:21.405Z,102282.41
2023-04-16T15:27:11.742Z,102295.38
2023-04-16T15:30:01.828Z,102286.00
2023-04-16T15:32:50.080Z,102280.94
2023-04-16T15:35:41.421Z,102276.75
2023-04-16T15:38:32.624Z,102271.84
2023-04-16T15:41:20.886Z,102263.31
2023-04-16T15:44:09.215Z,102261.06
2023-04-16T15:47:00.581Z,102260.09
2023-04-16T15:49:57.729Z,102255.22
2023-04-16T15:52:46.699Z,102254.09
2023-04-16T15:55:36.275Z,102256.53
2023-04-16T15:58:24.486Z,102253.59
2023-04-16T16:01:12.869Z,102259.94
2023-04-16T16:04:03.011Z,102250.59
2023-04-16T16:06:51.750Z,102258.06
2023-04-16T16:09:43.097Z,102250.13
2023-04-16T16:12:31.403Z,102233.78
2023-04-16T16:15:19.524Z,102241.38
2023-04-16T16:18:07.715Z,102229.38
2023-04-16T16:20:59.132Z,102232.13
2023-04-16T16:23:47.647Z,102222.41
2023-04-16T16:26:35.852Z,102226.34
2023-04-16T16:29:25.438Z,102227.00
2023-04-16T16:32:14.080Z,102226.47
2023-04-16T16:35:02.039Z,102229.69
2023-04-16T16:37:55.403Z,102231.97
2023-04-16T16:40:43.727Z,102242.69
2023-04-16T16:43:31.729Z,102226.47
2023-04-16T16:46:22.869Z,102229.69
2023-04-16T16:49:11.536Z,102229.38
2023-04-16T16:51:59.798Z,102232.41
2023-04-16T16:54:49.821Z,102230.63
2023-04-16T16:57:38.482Z,102235.47
2023-04-16T17:00:26.762Z,102242.59
2023-04-16T17:03:17.939Z,102235.84
2023-04-16T17:06:06.354Z,102252.03
2023-04-16T17:08:54.601Z,102242.63
2023-04-16T17:11:44.022Z,102248.66
2023-04-16T17:14:33.522Z,102247.19
2023-04-16T17:17:21.793Z,102241.66
2023-04-16T17:20:13.276Z,102243.81
2023-04-16T17:23:01.273Z,102243.03
2023-04-16T17:25:49.263Z,102236.56
2023-04-16T17:28:40.642Z,102225.72
2023-04-16T17:31:28.838Z,102231.41
2023-04-16T17:34:19.486Z,102218.00
2023-04-16T17:37:07.921Z,102215.91
2023-04-16T17:39:56.022Z,102206.88
2023-04-16T17:42:44.038Z,102207.81
2023-04-16T17:45:34.055Z,102194.22
2023-04-16T17:48:22.420Z,102199.75
2023-04-16T17:51:11.673Z,102196.66
2023-04-16T17:53:59.855Z,102198.75
2023-04-16T17:56:47.846Z,102203.19
2023-04-16T17:59:36.042Z,102201.91
2023-04-16T18:02:25.842Z,102202.53
2023-04-16T18:05:14.124Z,102209.97
2023-04-16T18:08:02.128Z,102198.16
2023-04-16T18:10:55.109Z,102205.13
2023-04-16T18:13:43.585Z,102206.91
2023-04-16T18:16:31.577Z,102207.88
2023-04-16T18:19:20.983Z,102212.09
2023-04-16T18:22:09.169Z,102209.84
2023-04-16T18:24:58.094Z,102208.41
2023-04-16T18:27:47.542Z,102208.06
2023-04-16T18:30:36.141Z,102215.16
2023-04-16T18:33:48.854Z,102215.16
2023-04-16T18:36:33.728Z,102223.09
2023-04-16T18:39:21.943Z,102229.25
2023-04-16T18:42:12.571Z,102223.56
2023-04-16T18:45:00.763Z,102220.53
2023-04-16T18:47:50.221Z,102222.78
2023-04-16T18:50:38.371Z,102219.53
2023-04-16T18:53:29.144Z,102215.03
2023-04-16T18:56:17.152Z,102216.81
2023-04-16T18:59:07.172Z,102227.00
2023-04-16T19:01:56.133Z,102222.44
2023-04-16T19:04:44.162Z,102221.97
2023-04-16T19:07:32.751Z,102220.19
2023-04-16T19:10:22.151Z,102223.09
2023-04-16T19:13:10.352Z,102223.72
2023-04-16T19:15:59.520Z,102225.53
2023-04-16T19:20:01.646Z,102222.94
2023-04-16T19:22:49.889Z,102226.16
2023-04-16T19:25:40.619Z,102231.81
2023-04-16T19:28:28.730Z,102232.78
2023-04-16T19:31:17.556Z,102232.00
2023-04-16T19:34:05.849Z,102223.59
2023-04-16T19:36:53.944Z,102228.78
2023-04-16T19:39:42.106Z,102220.69
2023-04-16T19:42:31.693Z,102219.06
2023-04-16T19:45:23.419Z,102223.75
2023-04-16T19:48:12.198Z,102216.97
2023-04-16T19:51:02.825Z,102221.50
2023-04-16T19:53:51.776Z,102228.63
2023-04-16T19:56:39.829Z,102233.94
2023-04-16T19:59:29.573Z,102234.28
2023-04-16T20:02:17.685Z,102225.88
2023-04-16T20:05:06.391Z,102230.22
2023-04-16T20:07:54.504Z,102224.25
2023-04-16T20:10:42.642Z,102223.91
2023-04-16T20:13:30.746Z,102228.28
2023-04-16T20:16:23.535Z,102223.59
2023-04-16T20:19:17.056Z,102224.09
2023-04-16T20:22:06.519Z,102226.97
2023-04-16T20:24:54.855Z,102222.94
2023-04-16T20:27:42.889Z,102228.75
2023-04-16T20:30:38.613Z,102221.00
2023-04-16T20:33:28.087Z,102221.19
2023-04-16T20:36:16.208Z,102219.22
2023-04-16T20:39:07.649Z,102216.63
2023-04-16T20:41:57.466Z,102220.22
2023-04-16T20:44:50.570Z,102222.00
2023-04-16T20:47:38.674Z,102218.59
2023-04-16T20:50:28.837Z,102211.00
2023-04-16T20:53:16.882Z,102208.25
2023-04-16T20:56:04.991Z,102210.69
2023-04-16T20:58:53.909Z,102213.28
2023-04-16T21:01:41.934Z,102203.41
2023-04-16T21:04:29.941Z,102204.72
2023-04-16T21:07:19.473Z,102195.81
2023-04-16T21:10:09.033Z,102198.91
2023-04-16T21:12:57.478Z,102190.81
2023-04-16T21:15:46.189Z,102190.50
2023-04-16T21:18:36.637Z,102195.81
2023-04-16T21:21:25.870Z,102201.31
2023-04-16T21:24:15.446Z,102191.94
2023-04-16T21:27:03.462Z,102185.97
2023-04-16T21:29:51.878Z,102187.75
2023-04-16T21:32:39.908Z,102180.16
2023-04-16T21:35:28.501Z,102187.91
2023-04-16T21:38:16.572Z,102184.50
2023-04-16T21:41:05.951Z,102178.22
2023-04-16T21:43:53.994Z,102172.06
2023-04-16T21:46:42.065Z,102173.06
2023-04-16T21:49:30.443Z,102175.50
2023-04-16T21:52:19.125Z,102181.59
2023-04-16T21:55:09.548Z,102168.84
2023-04-16T21:57:59.484Z,102182.91
2023-04-16T22:00:48.055Z,102179.66
2023-04-16T22:03:40.851Z,102177.06
2023-04-16T22:06:30.181Z,102179.34
2023-04-16T22:09:26.622Z,102182.59
2023-04-16T22:12:14.620Z,102187.91
2023-04-16T22:15:05.009Z,102178.53
2023-04-16T22:17:53.192Z,102178.53
2023-04-16T22:20:41.241Z,102185.66
2023-04-16T22:23:29.297Z,102177.25
2023-04-16T22:26:17.330Z,102173.22
2023-04-16T22:29:05.516Z,102179.84
2023-04-16T22:31:55.067Z,102172.41
2023-04-16T22:34:43.279Z,102169.50
2023-04-16T22:37:31.283Z,102167.72
2023-04-16T22:40:19.381Z,102163.34
2023-04-16T22:43:07.357Z,102165.00
2023-04-16T22:46:04.554Z,102171.09
2023-04-16T22:48:54.657Z,102171.44
2023-04-16T22:51:42.643Z,102173.53
2023-04-16T22:54:30.770Z,102177.09
2023-04-16T22:57:21.133Z,102176.59
2023-04-16T23:00:15.389Z,102183.88
2023-04-16T23:03:03.671Z,102182.75
2023-04-16T23:05:53.153Z,102189.22
2023-04-16T23:08:41.314Z,102175.97
2023-04-16T23:11:29.278Z,102175.16
2023-04-16T23:14:17.285Z,102165.28
2023-04-16T23:17:05.352Z,102173.03
2023-04-16T23:19:53.261Z,102175.16
2023-04-16T23:22:42.654Z,102175.97
2023-04-16T23:25:30.986Z,102165.16
2023-04-16T23:28:18.974Z,102174.97
2023-04-16T23:31:07.612Z,102168.53
2023-04-16T23:33:56.350Z,102167.72
2023-04-16T23:36:44.488Z,102171.78
2023-04-16T23:39:33.886Z,102177.91
2023-04-16T23:42:22.406Z,102170.16
2023-04-16T23:45:11.756Z,102173.38
2023-04-16T23:47:59.856Z,102173.22
2023-04-16T23:50:48.281Z,102171.75
2023-04-16T23:53:36.502Z,102166.59
2023-04-16T23:56:27.493Z,102169.03
2023-04-16T23:59:16.769Z,102164.50
